Time;durP1;ratioP1;P1;durP2;ratioP2;P2;SDS_P1;SDS_P2;PMS_P1;PMS_P2;Temp;Humidity;BMP_temperature;BMP_pressure;BME280_temperature;BME280_humidity;BME280_pressure;Samples;Min_cycle;Max_cycle;Signal;HPM_P1;HPM_P2
2022/01/16 00:00:57;;;;;;;16.98;11.13;;;;;;;;;;4969288;28;20398;-73
2022/01/16 00:06:12;;;;;;;14.35;11.35;;;;;;;;;;4970664;28;20058;-73
2022/01/16 00:08:39;;;;;;;16.25;11.43;;;;;;;;;;4972930;28;20051;-73
2022/01/16 00:11:05;;;;;;;15.98;10.93;;;;;;;;;;4972703;28;20051;-73
2022/01/16 00:13:31;;;;;;;15.00;11.23;;;;;;;;;;4972237;28;20046;-73
2022/01/16 00:15:57;;;;;;;15.45;10.63;;;;;;;;;;4972700;28;20054;-73
2022/01/16 00:18:27;;;;;;;14.35;11.20;;;;;;;;;;4972451;28;20436;-73
2022/01/16 00:20:53;;;;;;;15.13;10.73;;;;;;;;;;4971482;28;20061;-73
2022/01/16 00:23:27;;;;;;;16.42;11.48;;;;;;;;;;4972709;28;20054;-73
2022/01/16 00:25:55;;;;;;;14.68;11.05;;;;;;;;;;4972580;28;20121;-73
2022/01/16 00:28:22;;;;;;;18.45;11.95;;;;;;;;;;4971955;28;20409;-73
2022/01/16 00:30:48;;;;;;;16.08;11.18;;;;;;;;;;4971062;28;20050;-73
2022/01/16 00:33:15;;;;;;;14.38;11.23;;;;;;;;;;4970984;28;20046;-73
2022/01/16 00:35:41;;;;;;;16.45;11.63;;;;;;;;;;4971146;28;20058;-73
2022/01/16 00:38:08;;;;;;;15.23;11.48;;;;;;;;;;4954044;28;20061;-73
2022/01/16 00:40:34;;;;;;;15.40;11.43;;;;;;;;;;4970935;28;20105;-74
2022/01/16 00:43:00;;;;;;;17.73;11.63;;;;;;;;;;4972271;28;20150;-74
2022/01/16 00:45:29;;;;;;;17.13;12.48;;;;;;;;;;4972103;28;20437;-72
2022/01/16 00:47:55;;;;;;;17.27;12.93;;;;;;;;;;4971853;28;20058;-73
2022/01/16 00:50:21;;;;;;;15.93;12.18;;;;;;;;;;4971324;28;20046;-74
2022/01/16 00:52:47;;;;;;;18.45;12.43;;;;;;;;;;4972078;28;20046;-73
2022/01/16 00:55:13;;;;;;;18.27;12.45;;;;;;;;;;4971625;28;20043;-73
2022/01/16 00:57:39;;;;;;;16.10;12.20;;;;;;;;;;4971803;28;20047;-74
2022/01/16 01:00:06;;;;;;;18.35;12.35;;;;;;;;;;4971963;28;20046;-74
2022/01/16 01:02:32;;;;;;;15.95;11.65;;;;;;;;;;4971306;28;20047;-75
2022/01/16 01:04:58;;;;;;;16.27;11.88;;;;;;;;;;4971759;28;20138;-72
2022/01/16 01:07:24;;;;;;;16.70;12.80;;;;;;;;;;4971947;28;20094;-73
2022/01/16 01:09:50;;;;;;;15.00;11.70;;;;;;;;;;4971516;28;20054;-72
2022/01/16 01:12:43;;;;;;;16.75;12.05;;;;;;;;;;4971290;28;20441;-72
2022/01/16 01:15:10;;;;;;;15.73;11.82;;;;;;;;;;4970764;28;20465;-73
2022/01/16 01:17:44;;;;;;;15.57;11.68;;;;;;;;;;4970597;28;20137;-73
2022/01/16 01:20:14;;;;;;;17.90;12.43;;;;;;;;;;4971235;28;20077;-73
2022/01/16 01:22:40;;;;;;;17.65;12.57;;;;;;;;;;4970257;28;20058;-73
2022/01/16 01:25:08;;;;;;;16.65;12.20;;;;;;;;;;4970847;28;20050;-73
2022/01/16 01:27:34;;;;;;;19.48;14.32;;;;;;;;;;4971268;28;20429;-72
2022/01/16 01:30:06;;;;;;;17.33;12.93;;;;;;;;;;4969897;28;20560;-73
2022/01/16 01:32:42;;;;;;;17.88;12.52;;;;;;;;;;4971269;28;20457;-73
2022/01/16 01:35:10;;;;;;;17.13;12.70;;;;;;;;;;4970569;28;20050;-73
2022/01/16 01:37:36;;;;;;;17.70;13.60;;;;;;;;;;4969669;28;20051;-73
2022/01/16 01:40:04;;;;;;;18.88;13.52;;;;;;;;;;4970900;28;20051;-72
2022/01/16 01:42:33;;;;;;;17.48;12.60;;;;;;;;;;4971253;28;20551;-73
2022/01/16 01:53:15;;;;;;;17.05;12.38;;;;;;;;;;4970962;28;20104;-73
2022/01/16 01:55:43;;;;;;;16.85;12.20;;;;;;;;;;4970192;28;20050;-73
2022/01/16 01:58:10;;;;;;;17.30;12.85;;;;;;;;;;4970553;28;20144;-73
2022/01/16 02:00:36;;;;;;;17.35;13.10;;;;;;;;;;4970882;28;20049;-74
2022/01/16 02:03:15;;;;;;;20.98;13.50;;;;;;;;;;4970373;28;20154;-73
2022/01/16 02:05:42;;;;;;;18.60;12.73;;;;;;;;;;4970707;28;20528;-73
2022/01/16 02:08:09;;;;;;;18.98;13.75;;;;;;;;;;4970412;28;20042;-74
2022/01/16 02:10:38;;;;;;;18.05;12.93;;;;;;;;;;4969059;28;20404;-73
2022/01/16 02:13:08;;;;;;;19.75;12.88;;;;;;;;;;4970243;28;20046;-73
2022/01/16 02:27:57;;;;;;;16.27;12.32;;;;;;;;;;4969298;28;20421;-73
2022/01/16 02:35:26;;;;;;;17.50;13.05;;;;;;;;;;4970746;28;20472;-74
2022/01/16 02:37:52;;;;;;;19.55;14.13;;;;;;;;;;4986498;28;20107;-74
2022/01/16 02:40:23;;;;;;;19.02;14.43;;;;;;;;;;4978755;28;20394;-73
2022/01/16 02:42:51;;;;;;;22.77;14.70;;;;;;;;;;4970028;28;20061;-74
2022/01/16 02:45:28;;;;;;;18.15;13.73;;;;;;;;;;4968778;28;20050;-74
2022/01/16 02:47:55;;;;;;;18.48;13.98;;;;;;;;;;4969655;28;20474;-74
2022/01/16 02:50:22;;;;;;;19.05;14.35;;;;;;;;;;4969137;28;20050;-74
2022/01/16 02:52:48;;;;;;;21.33;15.25;;;;;;;;;;4968861;28;20050;-74
2022/01/16 02:55:15;;;;;;;18.65;14.55;;;;;;;;;;4968514;28;20055;-74
2022/01/16 02:57:41;;;;;;;19.98;14.30;;;;;;;;;;4969888;28;20050;-74
2022/01/16 03:00:08;;;;;;;20.80;14.63;;;;;;;;;;4969597;28;20081;-73
2022/01/16 03:02:34;;;;;;;19.35;14.25;;;;;;;;;;4969815;28;20130;-73
2022/01/16 03:05:01;;;;;;;20.65;15.13;;;;;;;;;;4969568;28;20508;-73
2022/01/16 03:07:27;;;;;;;18.38;13.85;;;;;;;;;;4969770;28;20054;-72
2022/01/16 03:10:25;;;;;;;22.90;14.75;;;;;;;;;;4968700;28;20497;-72
2022/01/16 03:12:52;;;;;;;19.15;14.15;;;;;;;;;;4969780;28;20074;-72
2022/01/16 03:15:19;;;;;;;19.90;14.93;;;;;;;;;;4969882;28;20047;-72
2022/01/16 03:23:13;;;;;;;19.65;14.13;;;;;;;;;;4969855;28;20050;-73
2022/01/16 03:25:39;;;;;;;19.45;14.18;;;;;;;;;;4969931;28;20047;-72
2022/01/16 03:28:05;;;;;;;20.42;14.65;;;;;;;;;;4969704;28;20051;-72
2022/01/16 03:30:31;;;;;;;20.75;15.05;;;;;;;;;;4967941;28;20610;-72
2022/01/16 03:32:57;;;;;;;19.77;14.35;;;;;;;;;;4968391;28;20090;-72
2022/01/16 03:35:23;;;;;;;19.63;14.48;;;;;;;;;;4969761;28;20401;-72
2022/01/16 03:37:50;;;;;;;19.88;15.27;;;;;;;;;;4969220;28;20046;-72
2022/01/16 03:40:16;;;;;;;19.90;15.27;;;;;;;;;;4970198;28;20110;-72
2022/01/16 03:42:42;;;;;;;20.83;14.77;;;;;;;;;;4973303;28;20054;-72
2022/01/16 03:45:09;;;;;;;20.70;14.45;;;;;;;;;;4973111;28;20043;-73
2022/01/16 03:47:35;;;;;;;20.25;15.23;;;;;;;;;;4972228;28;20133;-73
2022/01/16 03:50:01;;;;;;;22.60;14.63;;;;;;;;;;4971575;28;20536;-73
2022/01/16 03:52:27;;;;;;;25.90;14.40;;;;;;;;;;4971276;28;20493;-72
2022/01/16 03:54:53;;;;;;;20.00;14.40;;;;;;;;;;4972103;28;20046;-74
2022/01/16 03:57:19;;;;;;;20.05;13.05;;;;;;;;;;4971576;28;20574;-74
2022/01/16 03:59:46;;;;;;;20.85;13.45;;;;;;;;;;4970602;28;20410;-73
2022/01/16 04:02:12;;;;;;;20.00;14.45;;;;;;;;;;4970399;28;20055;-73
2022/01/16 04:04:38;;;;;;;19.38;14.15;;;;;;;;;;4971534;28;20070;-74
2022/01/16 04:07:05;;;;;;;23.77;13.90;;;;;;;;;;4970015;28;20435;-73
2022/01/16 04:09:31;;;;;;;21.40;13.95;;;;;;;;;;4970643;28;20489;-73
2022/01/16 04:11:58;;;;;;;19.98;13.60;;;;;;;;;;4971865;28;20457;-73
2022/01/16 04:17:14;;;;;;;22.80;14.60;;;;;;;;;;4971317;28;20047;-73
2022/01/16 04:19:40;;;;;;;23.30;14.57;;;;;;;;;;4971632;28;20051;-73
2022/01/16 04:22:06;;;;;;;25.60;13.98;;;;;;;;;;4971138;28;20042;-73
2022/01/16 04:24:33;;;;;;;20.17;13.88;;;;;;;;;;4971478;28;20055;-73
2022/01/16 04:26:59;;;;;;;20.67;13.43;;;;;;;;;;4970064;28;20520;-74
2022/01/16 04:29:25;;;;;;;20.65;13.88;;;;;;;;;;4971446;28;20134;-74
2022/01/16 04:31:51;;;;;;;22.25;13.63;;;;;;;;;;4971347;28;20484;-74
2022/01/16 04:34:17;;;;;;;20.05;13.88;;;;;;;;;;4970560;28;20081;-74
2022/01/16 04:36:43;;;;;;;22.55;13.90;;;;;;;;;;4971392;28;20047;-74
2022/01/16 04:39:15;;;;;;;21.25;14.95;;;;;;;;;;4971328;28;20437;-74
2022/01/16 04:44:26;;;;;;;24.48;14.70;;;;;;;;;;4970910;28;20054;-75
2022/01/16 04:46:53;;;;;;;21.52;13.43;;;;;;;;;;4931420;28;1110048;-73
2022/01/16 04:49:19;;;;;;;21.48;14.57;;;;;;;;;;4972217;28;20117;-73
2022/01/16 04:51:45;;;;;;;20.77;14.77;;;;;;;;;;4970650;28;20086;-73
2022/01/16 04:54:11;;;;;;;21.92;15.23;;;;;;;;;;4971996;28;20038;-73
2022/01/16 04:56:38;;;;;;;24.15;14.45;;;;;;;;;;4970310;28;20043;-73
2022/01/16 04:59:04;;;;;;;23.10;14.80;;;;;;;;;;4971570;28;20506;-73
2022/01/16 05:01:30;;;;;;;22.08;14.13;;;;;;;;;;4971745;28;20117;-74
2022/01/16 05:03:56;;;;;;;22.08;13.55;;;;;;;;;;4971842;28;20134;-74
2022/01/16 05:06:22;;;;;;;22.10;13.98;;;;;;;;;;4971699;28;20057;-74
2022/01/16 05:08:49;;;;;;;20.70;14.60;;;;;;;;;;4970677;28;20086;-73
2022/01/16 05:11:20;;;;;;;22.27;15.02;;;;;;;;;;4969824;28;20057;-74
2022/01/16 05:18:57;;;;;;;22.20;14.48;;;;;;;;;;4971114;28;20055;-74
2022/01/16 05:21:23;;;;;;;23.05;14.93;;;;;;;;;;4971456;28;20047;-74
2022/01/16 05:23:50;;;;;;;21.95;15.13;;;;;;;;;;4969937;28;20042;-74
2022/01/16 05:26:18;;;;;;;25.15;15.35;;;;;;;;;;4970047;28;20133;-74
2022/01/16 05:28:44;;;;;;;24.85;15.60;;;;;;;;;;4971448;28;20159;-73
2022/01/16 05:31:10;;;;;;;22.42;15.02;;;;;;;;;;4970467;28;20070;-74
2022/01/16 05:33:36;;;;;;;23.48;15.43;;;;;;;;;;4971597;28;20501;-75
2022/01/16 05:36:03;;;;;;;25.02;16.27;;;;;;;;;;4969526;28;20485;-75
2022/01/16 05:38:29;;;;;;;24.10;15.77;;;;;;;;;;4971089;28;20137;-75
2022/01/16 05:40:55;;;;;;;21.10;14.25;;;;;;;;;;4971039;28;20428;-75
2022/01/16 05:43:21;;;;;;;23.75;15.60;;;;;;;;;;4970715;28;20047;-75
2022/01/16 05:45:48;;;;;;;23.02;15.35;;;;;;;;;;4969931;28;20043;-75
2022/01/16 05:48:14;;;;;;;23.65;15.90;;;;;;;;;;4970520;28;20501;-75
2022/01/16 05:50:40;;;;;;;25.27;15.70;;;;;;;;;;4970911;28;20045;-75
2022/01/16 05:53:06;;;;;;;23.70;15.48;;;;;;;;;;4970963;28;20077;-75
2022/01/16 05:55:36;;;;;;;24.80;14.95;;;;;;;;;;4971043;28;20097;-75
2022/01/16 05:58:06;;;;;;;26.00;16.67;;;;;;;;;;4970290;28;20058;-75
2022/01/16 06:00:33;;;;;;;24.45;15.23;;;;;;;;;;4970716;28;20424;-75
2022/01/16 06:02:59;;;;;;;24.25;15.90;;;;;;;;;;4970095;28;20682;-75
2022/01/16 06:05:25;;;;;;;25.60;16.80;;;;;;;;;;4970878;28;20039;-75
2022/01/16 06:07:56;;;;;;;23.30;15.98;;;;;;;;;;4970929;28;20039;-74
2022/01/16 06:10:22;;;;;;;24.33;16.05;;;;;;;;;;4969890;28;20513;-74
2022/01/16 06:12:48;;;;;;;27.20;17.08;;;;;;;;;;4970521;28;20485;-74
2022/01/16 06:15:14;;;;;;;24.13;16.88;;;;;;;;;;4970379;28;20052;-74
2022/01/16 06:17:40;;;;;;;25.00;15.80;;;;;;;;;;4970402;28;20508;-75
2022/01/16 06:20:06;;;;;;;25.85;16.13;;;;;;;;;;4970469;28;20046;-75
2022/01/16 06:22:32;;;;;;;27.42;16.02;;;;;;;;;;4970370;28;20053;-75
2022/01/16 06:24:58;;;;;;;24.50;16.23;;;;;;;;;;4970297;28;20125;-75
2022/01/16 06:27:24;;;;;;;26.33;16.00;;;;;;;;;;4970111;28;20461;-75
2022/01/16 06:29:50;;;;;;;25.35;16.52;;;;;;;;;;4969155;28;20051;-75
2022/01/16 06:32:16;;;;;;;26.27;17.08;;;;;;;;;;4970052;28;20050;-75
2022/01/16 06:34:42;;;;;;;28.45;16.60;;;;;;;;;;4969618;28;20456;-75
2022/01/16 06:37:08;;;;;;;24.15;15.90;;;;;;;;;;4969884;28;20043;-75
2022/01/16 06:39:34;;;;;;;24.65;16.08;;;;;;;;;;4970367;28;20050;-74
2022/01/16 06:42:01;;;;;;;25.05;15.82;;;;;;;;;;4969686;28;20568;-75
2022/01/16 06:44:27;;;;;;;26.35;17.13;;;;;;;;;;4970053;28;20078;-75
2022/01/16 06:46:53;;;;;;;26.65;17.42;;;;;;;;;;4969853;28;20090;-75
2022/01/16 06:49:19;;;;;;;25.10;16.52;;;;;;;;;;4969812;28;20047;-75
2022/01/16 06:51:45;;;;;;;25.75;17.27;;;;;;;;;;4969400;28;20428;-75
2022/01/16 06:54:12;;;;;;;27.83;16.85;;;;;;;;;;4968540;28;20062;-75
2022/01/16 06:56:38;;;;;;;24.90;16.83;;;;;;;;;;4968881;28;20457;-75
2022/01/16 06:59:04;;;;;;;25.63;16.98;;;;;;;;;;4968529;28;20058;-75
2022/01/16 07:01:30;;;;;;;28.17;17.25;;;;;;;;;;4969361;28;20059;-75
2022/01/16 07:03:57;;;;;;;27.92;16.80;;;;;;;;;;4969754;28;20051;-73
2022/01/16 07:06:23;;;;;;;26.42;16.52;;;;;;;;;;4969729;28;20042;-73
2022/01/16 07:08:50;;;;;;;25.23;16.63;;;;;;;;;;4969813;28;20686;-76
2022/01/16 07:11:16;;;;;;;24.27;15.68;;;;;;;;;;4969108;28;20098;-73
2022/01/16 07:13:42;;;;;;;25.10;15.95;;;;;;;;;;4970009;28;20046;-73
2022/01/16 07:16:08;;;;;;;23.98;15.15;;;;;;;;;;4971957;28;20146;-73
2022/01/16 07:18:34;;;;;;;25.80;16.23;;;;;;;;;;4973691;28;21032;-73
2022/01/16 07:21:00;;;;;;;25.33;15.30;;;;;;;;;;4972422;28;20043;-73
2022/01/16 07:23:26;;;;;;;27.45;16.10;;;;;;;;;;4973068;28;20421;-74
2022/01/16 07:25:52;;;;;;;24.40;15.52;;;;;;;;;;4970948;28;20042;-72
2022/01/16 07:28:19;;;;;;;25.45;16.35;;;;;;;;;;4973474;28;20050;-72
2022/01/16 07:30:46;;;;;;;23.88;15.70;;;;;;;;;;4973459;28;20583;-73
2022/01/16 07:33:12;;;;;;;25.77;16.10;;;;;;;;;;4987413;28;20057;-72
2022/01/16 07:35:39;;;;;;;23.38;15.60;;;;;;;;;;4992929;28;20047;-72
2022/01/16 07:38:05;;;;;;;26.05;16.35;;;;;;;;;;4992868;28;20163;-72
2022/01/16 07:40:31;;;;;;;28.17;16.23;;;;;;;;;;4987089;28;20035;-72
2022/01/16 07:42:59;;;;;;;24.30;15.57;;;;;;;;;;4971341;28;20093;-72
2022/01/16 07:45:25;;;;;;;24.42;16.65;;;;;;;;;;4973493;28;20059;-72
2022/01/16 07:47:51;;;;;;;23.85;15.48;;;;;;;;;;4973268;28;20447;-72
2022/01/16 07:50:17;;;;;;;24.40;16.27;;;;;;;;;;4972810;28;20058;-71
2022/01/16 07:52:43;;;;;;;26.15;15.68;;;;;;;;;;4973343;28;20043;-72
2022/01/16 07:55:10;;;;;;;23.33;16.13;;;;;;;;;;4972475;28;20141;-70
2022/01/16 07:57:36;;;;;;;24.52;15.77;;;;;;;;;;4971518;28;20042;-71
2022/01/16 08:00:02;;;;;;;24.27;15.07;;;;;;;;;;4972904;28;20047;-72
2022/01/16 08:02:28;;;;;;;21.85;14.60;;;;;;;;;;4972937;28;20043;-71
2022/01/16 08:04:54;;;;;;;23.77;16.40;;;;;;;;;;4972936;28;20409;-72
2022/01/16 08:07:20;;;;;;;22.88;14.90;;;;;;;;;;4971744;28;20047;-73
2022/01/16 08:09:47;;;;;;;21.73;14.82;;;;;;;;;;4972360;28;20378;-73
2022/01/16 08:12:14;;;;;;;22.67;14.63;;;;;;;;;;4972896;28;20104;-72
2022/01/16 08:14:40;;;;;;;23.42;14.88;;;;;;;;;;4973127;28;20085;-72
2022/01/16 08:17:06;;;;;;;22.00;15.05;;;;;;;;;;4971716;28;20493;-71
2022/01/16 08:19:32;;;;;;;23.70;14.63;;;;;;;;;;4972129;28;20563;-71
2022/01/16 08:21:58;;;;;;;20.45;13.90;;;;;;;;;;4971332;28;20134;-72
2022/01/16 08:24:25;;;;;;;21.83;15.07;;;;;;;;;;4972377;28;20054;-72
2022/01/16 08:26:51;;;;;;;23.38;14.88;;;;;;;;;;4972249;28;20528;-71
2022/01/16 08:29:18;;;;;;;23.35;14.38;;;;;;;;;;4972821;28;20047;-71
2022/01/16 08:31:44;;;;;;;23.45;14.70;;;;;;;;;;4972214;28;20042;-73
2022/01/16 08:34:10;;;;;;;21.52;13.38;;;;;;;;;;4970795;28;20082;-71
2022/01/16 08:36:36;;;;;;;21.35;13.48;;;;;;;;;;4972638;28;20047;-71
2022/01/16 08:39:03;;;;;;;19.38;13.88;;;;;;;;;;4972231;28;20137;-71
2022/01/16 08:41:30;;;;;;;22.88;14.15;;;;;;;;;;4972066;28;20126;-73
2022/01/16 08:43:56;;;;;;;19.60;13.23;;;;;;;;;;4972537;28;20058;-72
2022/01/16 08:46:22;;;;;;;18.67;13.13;;;;;;;;;;4971492;28;20059;-73
2022/01/16 08:48:49;;;;;;;20.80;13.38;;;;;;;;;;4972420;28;20055;-71
2022/01/16 08:51:15;;;;;;;20.20;13.77;;;;;;;;;;4972259;28;20043;-71
2022/01/16 08:53:41;;;;;;;20.83;13.60;;;;;;;;;;4971516;28;20046;-72
2022/01/16 08:56:07;;;;;;;21.40;12.55;;;;;;;;;;4972154;28;20043;-72
2022/01/16 08:58:33;;;;;;;21.10;12.75;;;;;;;;;;4972364;28;20054;-72
2022/01/16 09:00:59;;;;;;;22.00;11.80;;;;;;;;;;4972006;28;20057;-72
2022/01/16 09:03:25;;;;;;;20.42;12.00;;;;;;;;;;4972000;28;20050;-72
2022/01/16 09:05:52;;;;;;;16.33;11.60;;;;;;;;;;4971872;28;20046;-71
2022/01/16 09:08:18;;;;;;;18.40;12.40;;;;;;;;;;4971707;28;20114;-71
2022/01/16 09:10:44;;;;;;;21.92;12.80;;;;;;;;;;4972005;28;20047;-73
2022/01/16 09:13:12;;;;;;;18.38;11.13;;;;;;;;;;4971692;28;20046;-73
2022/01/16 09:15:42;;;;;;;17.02;11.38;;;;;;;;;;4970629;28;20094;-73
2022/01/16 09:18:08;;;;;;;17.15;10.93;;;;;;;;;;4970019;28;20465;-73
2022/01/16 09:20:34;;;;;;;16.25;10.32;;;;;;;;;;4970579;28;20404;-72
2022/01/16 09:23:00;;;;;;;15.38;9.60;;;;;;;;;;4971831;28;20043;-74
2022/01/16 09:25:26;;;;;;;18.30;10.27;;;;;;;;;;4970381;28;20054;-73
2022/01/16 09:27:53;;;;;;;13.63;9.50;;;;;;;;;;4971396;28;20141;-73
2022/01/16 09:30:19;;;;;;;17.08;10.07;;;;;;;;;;4966061;28;20054;-72
2022/01/16 09:32:46;;;;;;;15.20;8.85;;;;;;;;;;4969299;28;20046;-74
2022/01/16 09:35:12;;;;;;;13.30;8.45;;;;;;;;;;4969580;28;20046;-74
2022/01/16 09:37:38;;;;;;;14.77;9.15;;;;;;;;;;4966966;28;20693;-72
2022/01/16 09:40:05;;;;;;;13.02;8.50;;;;;;;;;;4968092;28;20038;-73
2022/01/16 09:42:32;;;;;;;12.90;8.73;;;;;;;;;;4969568;28;20074;-73
2022/01/16 09:44:58;;;;;;;12.20;8.25;;;;;;;;;;4967778;28;20046;-74
2022/01/16 09:47:24;;;;;;;13.13;8.43;;;;;;;;;;4968214;28;20046;-72
2022/01/16 09:49:51;;;;;;;13.55;8.80;;;;;;;;;;4966669;28;20046;-74
2022/01/16 09:52:17;;;;;;;13.18;8.48;;;;;;;;;;4968866;28;20046;-72
2022/01/16 09:54:43;;;;;;;13.55;8.80;;;;;;;;;;4965771;28;20051;-74
2022/01/16 09:57:10;;;;;;;14.55;8.60;;;;;;;;;;4968473;28;20069;-73
2022/01/16 09:59:36;;;;;;;13.18;8.55;;;;;;;;;;4967041;28;20039;-72
2022/01/16 10:02:03;;;;;;;15.00;7.70;;;;;;;;;;4966253;28;20050;-73
2022/01/16 10:04:35;;;;;;;12.00;7.30;;;;;;;;;;4951073;28;20039;-72
2022/01/16 10:07:03;;;;;;;12.20;7.43;;;;;;;;;;4966997;28;20050;-73
2022/01/16 10:09:29;;;;;;;12.45;8.23;;;;;;;;;;4968964;28;20039;-75
2022/01/16 10:11:56;;;;;;;11.70;7.63;;;;;;;;;;4969065;28;20042;-73
2022/01/16 10:14:29;;;;;;;12.48;7.75;;;;;;;;;;4968528;28;20058;-72
2022/01/16 10:16:55;;;;;;;11.48;7.28;;;;;;;;;;4967188;28;20122;-72
2022/01/16 10:19:31;;;;;;;12.50;7.90;;;;;;;;;;4967144;28;20047;-72
2022/01/16 10:22:04;;;;;;;11.05;7.43;;;;;;;;;;4951933;28;20125;-72
2022/01/16 10:24:33;;;;;;;10.85;7.38;;;;;;;;;;4964474;28;20046;-73
2022/01/16 10:27:08;;;;;;;10.80;6.60;;;;;;;;;;4968417;28;20047;-72
2022/01/16 10:29:42;;;;;;;13.25;7.30;;;;;;;;;;4968983;28;20139;-72
2022/01/16 10:32:25;;;;;;;11.85;7.13;;;;;;;;;;4963764;28;20051;-74
2022/01/16 10:34:55;;;;;;;11.75;6.90;;;;;;;;;;4967346;28;20048;-73
2022/01/16 10:37:29;;;;;;;10.40;7.13;;;;;;;;;;4969930;28;20097;-74
2022/01/16 10:40:03;;;;;;;10.85;7.25;;;;;;;;;;4969566;28;20588;-73
2022/01/16 10:42:30;;;;;;;10.13;6.45;;;;;;;;;;4969925;28;20042;-74
2022/01/16 10:45:02;;;;;;;12.15;7.45;;;;;;;;;;4969469;28;20045;-74
2022/01/16 10:47:29;;;;;;;10.35;6.55;;;;;;;;;;4970015;28;20058;-74
2022/01/16 10:50:22;;;;;;;10.70;6.72;;;;;;;;;;4968907;28;20141;-75
2022/01/16 10:52:54;;;;;;;10.88;6.57;;;;;;;;;;4968761;28;20058;-75
2022/01/16 10:55:21;;;;;;;9.68;6.65;;;;;;;;;;4970252;28;20129;-74
2022/01/16 10:57:48;;;;;;;10.00;6.43;;;;;;;;;;4968182;28;20104;-74
2022/01/16 11:00:17;;;;;;;8.85;6.20;;;;;;;;;;4969487;28;20047;-74
2022/01/16 11:02:43;;;;;;;;;;;;;;;;;;4970107;28;20101;-74
2022/01/16 11:05:11;;;;;;;11.40;5.90;;;;;;;;;;4969709;28;20420;-75
2022/01/16 11:07:38;;;;;;;9.77;6.22;;;;;;;;;;4970951;28;20043;-75
2022/01/16 11:10:23;;;;;;;10.68;6.13;;;;;;;;;;4969912;28;20039;-74
2022/01/16 11:12:50;;;;;;;9.05;5.75;;;;;;;;;;4969992;28;20050;-74
2022/01/16 11:15:17;;;;;;;11.45;6.78;;;;;;;;;;4969198;28;20039;-75
2022/01/16 11:17:43;;;;;;;9.88;6.18;;;;;;;;;;4968655;28;20047;-74
2022/01/16 11:20:10;;;;;;;10.00;5.65;;;;;;;;;;4969672;28;20090;-74
2022/01/16 11:22:56;;;;;;;10.13;6.47;;;;;;;;;;4969262;28;20116;-74
2022/01/16 11:25:31;;;;;;;10.27;6.05;;;;;;;;;;4968465;28;20133;-75
2022/01/16 11:27:58;;;;;;;9.43;5.43;;;;;;;;;;4951358;28;20130;-72
2022/01/16 11:30:24;;;;;;;10.68;6.07;;;;;;;;;;4969467;28;20047;-74
2022/01/16 11:32:51;;;;;;;12.27;6.18;;;;;;;;;;4967630;28;20559;-75
2022/01/16 11:35:18;;;;;;;17.42;6.13;;;;;;;;;;4969398;28;20413;-74
2022/01/16 11:37:44;;;;;;;12.48;5.80;;;;;;;;;;4969585;28;20050;-74
2022/01/16 11:40:20;;;;;;;9.10;5.43;;;;;;;;;;4969027;28;20055;-72
2022/01/16 11:43:06;;;;;;;10.30;5.10;;;;;;;;;;4969865;28;20041;-74
2022/01/16 11:45:32;;;;;;;12.68;5.82;;;;;;;;;;4969396;28;20051;-74
2022/01/16 11:47:59;;;;;;;11.57;5.72;;;;;;;;;;4969103;28;20051;-74
2022/01/16 11:50:34;;;;;;;9.32;5.45;;;;;;;;;;4969122;28;20455;-74
2022/01/16 11:53:01;;;;;;;9.10;5.50;;;;;;;;;;4969447;28;20046;-73
2022/01/16 11:55:34;;;;;;;10.43;5.50;;;;;;;;;;4969639;28;20449;-74
2022/01/16 11:58:01;;;;;;;9.20;5.35;;;;;;;;;;4969484;28;20394;-74
2022/01/16 12:00:42;;;;;;;10.15;5.60;;;;;;;;;;4968954;28;20073;-74
2022/01/16 12:03:28;;;;;;;9.35;5.18;;;;;;;;;;4972728;28;20042;-75
2022/01/16 12:06:14;;;;;;;9.57;5.47;;;;;;;;;;4972910;28;20409;-74
2022/01/16 12:08:45;;;;;;;8.82;5.43;;;;;;;;;;4973058;28;20047;-74
2022/01/16 12:11:31;;;;;;;9.35;5.63;;;;;;;;;;4972264;28;20047;-72
2022/01/16 12:13:58;;;;;;;10.43;5.55;;;;;;;;;;4972605;28;20133;-72
2022/01/16 12:16:35;;;;;;;18.50;5.95;;;;;;;;;;4972406;28;20135;-74
2022/01/16 12:19:19;;;;;;;8.65;5.25;;;;;;;;;;4971649;28;20101;-73
2022/01/16 12:21:55;;;;;;;9.98;5.35;;;;;;;;;;4972901;28;20567;-73
2022/01/16 12:24:38;;;;;;;10.93;5.47;;;;;;;;;;4972626;28;20405;-73
2022/01/16 12:27:23;;;;;;;11.60;5.32;;;;;;;;;;4972764;28;20363;-73
2022/01/16 12:30:08;;;;;;;23.60;5.65;;;;;;;;;;4971880;28;20038;-73
2022/01/16 12:32:52;;;;;;;10.55;5.03;;;;;;;;;;4972065;28;20047;-72
2022/01/16 12:35:37;;;;;;;8.95;5.40;;;;;;;;;;4972184;28;20093;-71
2022/01/16 12:38:10;;;;;;;10.10;5.57;;;;;;;;;;4971330;28;20054;-72
2022/01/16 12:40:38;;;;;;;7.97;4.75;;;;;;;;;;4972506;28;20047;-72
2022/01/16 12:43:08;;;;;;;11.82;5.22;;;;;;;;;;4954738;28;20054;-72
2022/01/16 12:45:37;;;;;;;8.57;5.03;;;;;;;;;;4972332;28;20109;-72
2022/01/16 12:48:04;;;;;;;10.20;5.00;;;;;;;;;;4972428;28;20050;-71
2022/01/16 12:50:30;;;;;;;9.30;5.13;;;;;;;;;;4972180;28;20051;-73
2022/01/16 12:52:56;;;;;;;12.07;4.90;;;;;;;;;;4970757;28;20062;-73
2022/01/16 12:55:26;;;;;;;11.45;4.72;;;;;;;;;;4969325;28;20047;-73
2022/01/16 12:57:52;;;;;;;17.77;4.68;;;;;;;;;;4971549;28;20401;-73
2022/01/16 13:00:18;;;;;;;9.90;4.75;;;;;;;;;;4990465;28;20409;-74
2022/01/16 13:02:44;;;;;;;9.88;4.57;;;;;;;;;;4971094;28;20423;-76
2022/01/16 13:05:19;;;;;;;13.30;4.38;;;;;;;;;;4970623;28;20054;-73
2022/01/16 13:07:45;;;;;;;7.38;4.05;;;;;;;;;;4972202;28;20065;-73
2022/01/16 13:10:11;;;;;;;7.95;4.43;;;;;;;;;;4966636;28;20043;-73
2022/01/16 13:12:37;;;;;;;7.20;4.10;;;;;;;;;;4971197;28;20133;-73
2022/01/16 13:15:04;;;;;;;8.77;4.53;;;;;;;;;;4970151;28;20085;-72
2022/01/16 13:17:31;;;;;;;10.30;4.45;;;;;;;;;;4970736;28;20051;-73
2022/01/16 13:19:59;;;;;;;7.40;3.80;;;;;;;;;;4971910;28;20149;-72
2022/01/16 13:22:30;;;;;;;8.25;4.10;;;;;;;;;;4970476;28;20054;-73
2022/01/16 13:24:58;;;;;;;8.95;4.18;;;;;;;;;;4976663;28;20042;-73
2022/01/16 13:27:31;;;;;;;10.47;3.73;;;;;;;;;;4990977;28;20050;-73
2022/01/16 13:29:59;;;;;;;7.05;3.95;;;;;;;;;;4988972;28;20320;-73
2022/01/16 13:32:36;;;;;;;6.45;3.72;;;;;;;;;;4971599;28;20491;-75
2022/01/16 13:35:18;;;;;;;6.93;3.88;;;;;;;;;;4971578;28;20054;-74
2022/01/16 13:37:45;;;;;;;8.85;4.15;;;;;;;;;;4982556;28;20054;-75
2022/01/16 13:40:12;;;;;;;7.28;3.50;;;;;;;;;;4985564;28;20058;-75
2022/01/16 13:45:15;;;;;;;7.13;3.67;;;;;;;;;;4970702;28;20043;-74
2022/01/16 13:48:00;;;;;;;8.80;4.43;;;;;;;;;;4970920;28;20477;-75
2022/01/16 13:50:29;;;;;;;7.20;4.00;;;;;;;;;;4969715;28;20050;-74
2022/01/16 13:52:59;;;;;;;6.85;4.10;;;;;;;;;;4971306;28;20043;-71
2022/01/16 13:55:27;;;;;;;7.38;3.60;;;;;;;;;;4969777;28;20050;-71
2022/01/16 13:57:53;;;;;;;9.15;3.97;;;;;;;;;;4970411;28;20047;-73
2022/01/16 14:00:21;;;;;;;9.20;3.72;;;;;;;;;;4969236;28;20105;-74
2022/01/16 14:02:47;;;;;;;5.80;3.80;;;;;;;;;;4969693;28;20047;-73
2022/01/16 14:05:24;;;;;;;8.05;4.35;;;;;;;;;;4953299;28;20086;-71
2022/01/16 14:07:50;;;;;;;6.00;3.60;;;;;;;;;;4969059;28;20138;-72
2022/01/16 14:10:37;;;;;;;5.80;3.22;;;;;;;;;;4970524;28;20677;-73
2022/01/16 14:13:03;;;;;;;7.38;3.50;;;;;;;;;;4969508;28;20099;-75
2022/01/16 14:15:30;;;;;;;7.10;4.05;;;;;;;;;;4970449;28;20050;-73
2022/01/16 14:17:57;;;;;;;6.72;3.40;;;;;;;;;;4969985;28;20130;-73
2022/01/16 14:20:35;;;;;;;6.38;3.67;;;;;;;;;;4974438;28;20467;-73
2022/01/16 14:23:08;;;;;;;8.07;4.03;;;;;;;;;;4974249;28;20059;-72
2022/01/16 14:25:34;;;;;;;8.15;3.35;;;;;;;;;;4968682;28;20055;-73
2022/01/16 14:28:01;;;;;;;6.85;3.42;;;;;;;;;;4969933;28;20042;-74
2022/01/16 14:30:27;;;;;;;9.40;4.18;;;;;;;;;;4968613;28;20058;-74
2022/01/16 14:32:53;;;;;;;6.95;3.25;;;;;;;;;;4953109;28;20059;-74
2022/01/16 14:35:20;;;;;;;8.57;4.28;;;;;;;;;;4966485;28;20054;-75
2022/01/16 14:37:46;;;;;;;6.95;3.20;;;;;;;;;;4974104;28;20058;-75
2022/01/16 14:40:12;;;;;;;6.47;3.65;;;;;;;;;;4968235;28;20130;-75
2022/01/16 14:42:41;;;;;;;6.45;3.53;;;;;;;;;;4968589;28;20054;-74
2022/01/16 14:45:07;;;;;;;7.57;3.47;;;;;;;;;;4953084;28;20047;-76
2022/01/16 14:47:34;;;;;;;5.50;3.00;;;;;;;;;;4968667;28;20101;-74
2022/01/16 14:50:03;;;;;;;7.38;3.55;;;;;;;;;;4969632;28;20146;-73
2022/01/16 14:52:29;;;;;;;6.80;3.63;;;;;;;;;;4969134;28;20108;-76
2022/01/16 14:54:56;;;;;;;8.98;3.67;;;;;;;;;;4968217;28;20057;-72
2022/01/16 14:57:23;;;;;;;8.18;3.80;;;;;;;;;;4967819;28;20049;-72
2022/01/16 14:59:51;;;;;;;8.95;3.75;;;;;;;;;;4968561;28;20051;-71
2022/01/16 15:02:17;;;;;;;8.02;3.28;;;;;;;;;;4967877;28;20103;-71
2022/01/16 15:04:43;;;;;;;7.65;3.08;;;;;;;;;;4967460;28;20074;-71
2022/01/16 15:07:10;;;;;;;6.47;2.80;;;;;;;;;;4951069;28;20069;-71
2022/01/16 15:09:36;;;;;;;6.40;3.08;;;;;;;;;;4968014;28;20042;-71
2022/01/16 15:12:02;;;;;;;5.32;2.78;;;;;;;;;;4968038;28;20090;-71
2022/01/16 15:14:28;;;;;;;6.57;3.63;;;;;;;;;;4965100;28;20053;-72
2022/01/16 15:16:57;;;;;;;6.78;2.97;;;;;;;;;;4968563;28;20786;-71
2022/01/16 15:19:29;;;;;;;6.05;2.47;;;;;;;;;;4950044;28;20058;-70